createdAt,value
2019-03-12T00:01:20.139Z,85.58
2019-03-12T00:03:48.080Z,85.27
2019-03-12T00:06:16.259Z,85.15
2019-03-12T00:08:46.248Z,85.06
2019-03-12T00:11:14.393Z,84.88
2019-03-12T00:13:45.119Z,84.84
2019-03-12T00:16:13.226Z,85.16
2019-03-12T00:18:41.209Z,85.02
2019-03-12T00:21:11.339Z,85.00
2019-03-12T00:23:40.181Z,85.46
2019-03-12T00:26:10.953Z,85.63
2019-03-12T00:28:38.933Z,85.82
2019-03-12T00:31:07.060Z,85.37
2019-03-12T00:33:37.694Z,85.66
2019-03-12T00:36:05.731Z,85.77
2019-03-12T00:38:33.632Z,85.63
2019-03-12T00:41:01.765Z,86.54
2019-03-12T00:43:29.772Z,86.32
2019-03-12T00:45:59.817Z,86.28
2019-03-12T00:48:27.929Z,85.61
2019-03-12T00:50:55.913Z,85.38
2019-03-12T00:53:24.024Z,85.88
2019-03-12T00:55:51.887Z,86.14
2019-03-12T00:58:21.950Z,86.47
2019-03-12T01:00:52.617Z,86.66
2019-03-12T01:03:21.219Z,86.45
2019-03-12T01:05:49.342Z,87.18
2019-03-12T01:08:17.318Z,87.36
2019-03-12T01:10:45.441Z,87.06
2019-03-12T01:13:17.548Z,87.22
2019-03-12T01:15:48.291Z,87.08
2019-03-12T01:18:18.879Z,86.60
2019-03-12T01:20:49.599Z,86.36
2019-03-12T01:23:17.631Z,85.93
2019-03-12T01:25:45.932Z,85.80
2019-03-12T01:28:14.070Z,85.52
2019-03-12T01:30:43.264Z,85.98
2019-03-12T01:33:13.854Z,85.85
2019-03-12T01:35:41.933Z,86.07
2019-03-12T01:38:10.078Z,85.70
2019-03-12T01:40:38.161Z,86.16
2019-03-12T01:43:06.219Z,85.68
2019-03-12T01:45:37.486Z,85.85
2019-03-12T01:48:05.512Z,86.52
2019-03-12T01:50:36.533Z,85.97
2019-03-12T01:53:04.558Z,86.07
2019-03-12T01:55:32.633Z,86.14
2019-03-12T01:58:03.283Z,86.02
2019-03-12T02:00:35.759Z,86.04
2019-03-12T02:03:04.996Z,86.47
2019-03-12T02:05:34.365Z,86.57
2019-03-12T02:08:02.368Z,87.18
2019-03-12T02:10:33.474Z,87.06
2019-03-12T02:13:01.532Z,87.24
2019-03-12T02:15:29.741Z,86.85
2019-03-12T02:17:57.760Z,87.65
2019-03-12T02:20:28.424Z,88.07
2019-03-12T02:22:56.571Z,88.97
2019-03-12T02:25:27.460Z,88.36
2019-03-12T02:27:55.754Z,89.02
2019-03-12T02:30:24.076Z,88.36
2019-03-12T02:32:52.127Z,88.56
2019-03-12T02:35:21.700Z,87.69
2019-03-12T02:37:52.393Z,87.74
2019-03-12T02:40:20.386Z,88.13
2019-03-12T02:42:48.528Z,87.68
2019-03-12T02:45:16.707Z,87.76
2019-03-12T02:47:44.629Z,87.81
2019-03-12T02:50:15.554Z,88.54
2019-03-12T02:52:43.729Z,88.32
2019-03-12T02:55:12.078Z,88.91
2019-03-12T02:57:40.289Z,89.44
2019-03-12T03:00:14.431Z,88.64
2019-03-12T03:02:42.491Z,87.77
2019-03-12T03:05:10.708Z,88.00
2019-03-12T03:08:07.129Z,88.59
2019-03-12T03:10:35.206Z,87.67
2019-03-12T03:13:04.140Z,87.95
2019-03-12T03:15:50.826Z,87.44
2019-03-12T03:18:18.836Z,87.91
2019-03-12T03:20:46.937Z,87.35
2019-03-12T03:23:14.977Z,87.48
2019-03-12T03:25:43.222Z,86.91
2019-03-12T03:28:11.350Z,87.00
2019-03-12T03:30:39.481Z,86.57
2019-03-12T03:33:10.064Z,87.37
2019-03-12T03:35:40.845Z,87.28
2019-03-12T03:38:11.313Z,87.03
2019-03-12T03:40:42.121Z,87.06
2019-03-12T03:43:12.869Z,88.02
2019-03-12T03:45:41.007Z,87.46
2019-03-12T03:48:09.044Z,87.36
2019-03-12T03:50:37.133Z,87.11
2019-03-12T03:53:05.270Z,87.05
2019-03-12T03:55:33.304Z,86.97
2019-03-12T03:58:01.403Z,86.50
2019-03-12T04:00:29.502Z,86.62
2019-03-12T04:02:57.940Z,86.40
2019-03-12T04:05:25.971Z,86.98
2019-03-12T04:07:54.081Z,86.98
2019-03-12T04:10:22.087Z,86.68
2019-03-12T04:12:50.209Z,86.48
2019-03-12T04:15:18.474Z,86.38
2019-03-12T04:17:46.566Z,86.23
2019-03-12T04:20:15.008Z,86.31
2019-03-12T04:22:43.094Z,86.83
2019-03-12T04:25:11.914Z,86.76
2019-03-12T04:27:40.131Z,87.38
2019-03-12T04:30:09.649Z,86.97
2019-03-12T04:32:38.074Z,87.04
2019-03-12T04:35:07.378Z,87.46
2019-03-12T04:37:35.451Z,87.12
2019-03-12T04:40:04.141Z,86.96
2019-03-12T04:42:32.131Z,86.87
2019-03-12T04:45:00.078Z,87.01
2019-03-12T04:47:28.319Z,86.59
2019-03-12T04:49:56.454Z,86.32
2019-03-12T04:52:24.465Z,85.70
2019-03-12T04:54:52.502Z,85.92
2019-03-12T04:57:20.612Z,85.10
2019-03-12T04:59:48.662Z,85.12
2019-03-12T05:02:16.848Z,85.09
2019-03-12T05:04:44.800Z,84.46
2019-03-12T05:07:13.082Z,84.31
2019-03-12T05:09:41.099Z,84.20
2019-03-12T05:12:09.183Z,84.62
2019-03-12T05:14:42.275Z,84.34
2019-03-12T05:17:17.669Z,84.47
2019-03-12T05:19:46.111Z,84.40
2019-03-12T05:22:15.111Z,83.88
2019-03-12T05:24:43.048Z,83.43
2019-03-12T05:27:11.127Z,83.77
2019-03-12T05:29:39.274Z,83.81
2019-03-12T05:32:07.532Z,83.77
2019-03-12T05:34:35.589Z,83.66
2019-03-12T05:37:03.807Z,83.73
2019-03-12T05:39:35.915Z,83.70
2019-03-12T05:42:04.025Z,83.99
2019-03-12T05:44:32.077Z,83.78
2019-03-12T05:47:00.184Z,84.08
2019-03-12T05:49:28.371Z,84.49
2019-03-12T05:51:57.179Z,84.30
2019-03-12T05:54:25.138Z,83.95
2019-03-12T05:56:53.174Z,83.93
2019-03-12T05:59:21.178Z,83.95
2019-03-12T06:01:50.006Z,83.72
2019-03-12T06:04:18.076Z,83.79
2019-03-12T06:06:46.183Z,83.61
2019-03-12T06:09:14.153Z,83.65
2019-03-12T06:11:41.998Z,83.07
2019-03-12T06:14:10.097Z,83.59
2019-03-12T06:16:38.174Z,83.78
2019-03-12T06:19:06.285Z,83.41
2019-03-12T06:21:34.329Z,83.20
2019-03-12T06:24:02.507Z,83.32
2019-03-12T06:26:30.453Z,83.03
2019-03-12T06:28:58.558Z,82.96
2019-03-12T06:31:45.114Z,82.41
2019-03-12T06:34:30.164Z,82.46
2019-03-12T06:37:23.908Z,82.49
2019-03-12T06:39:59.694Z,82.33
2019-03-12T06:43:02.374Z,82.44
2019-03-12T06:45:39.595Z,82.59
2019-03-12T06:48:23.556Z,82.00
2019-03-12T06:51:03.788Z,80.81
2019-03-12T06:53:49.818Z,81.33
2019-03-12T06:56:40.577Z,80.53
2019-03-12T06:59:25.661Z,80.11
2019-03-12T07:02:04.629Z,80.15
2019-03-12T07:04:40.240Z,80.35
2019-03-12T07:07:27.769Z,80.64
2019-03-12T07:10:18.014Z,80.46
2019-03-12T07:13:07.795Z,79.92
2019-03-12T07:15:44.168Z,80.20
2019-03-12T07:18:37.462Z,80.09
2019-03-12T07:21:24.329Z,80.62
2019-03-12T07:24:00.127Z,80.48
2019-03-12T07:26:52.429Z,78.99
2019-03-12T07:29:39.925Z,78.25
2019-03-12T07:32:30.526Z,78.06
2019-03-12T07:35:24.083Z,78.79
2019-03-12T07:38:03.523Z,80.47
2019-03-12T07:41:22.831Z,76.57
2019-03-12T07:44:10.668Z,77.89
2019-03-12T07:46:47.801Z,76.24
2019-03-12T07:49:35.192Z,75.20
2019-03-12T07:52:25.296Z,74.45
2019-03-12T07:55:12.931Z,75.29
2019-03-12T07:57:50.952Z,75.36
2019-03-12T08:00:41.463Z,76.08
2019-03-12T08:03:22.999Z,78.32
2019-03-12T08:06:02.683Z,75.05
2019-03-12T08:08:56.204Z,74.18
2019-03-12T08:11:40.351Z,73.66
2019-03-12T08:14:42.972Z,74.82
2019-03-12T08:17:23.296Z,75.22
2019-03-12T08:20:16.972Z,74.90
2019-03-12T08:23:00.579Z,74.16
2019-03-12T08:25:53.951Z,75.14
2019-03-12T08:28:30.110Z,75.57
2019-03-12T08:31:17.740Z,77.35
2019-03-12T08:34:10.325Z,78.32
2019-03-12T08:36:48.123Z,78.33
2019-03-12T08:39:38.330Z,76.28
2019-03-12T08:42:18.730Z,74.88
2019-03-12T08:45:01.286Z,72.53
2019-03-12T08:47:40.528Z,73.72
2019-03-12T08:50:35.007Z,72.00
2019-03-12T08:53:15.450Z,71.52
2019-03-12T08:55:56.052Z,67.59
2019-03-12T08:58:40.002Z,67.74
2019-03-12T09:40:25.510Z,66.91
2019-03-12T09:43:11.331Z,65.11
2019-03-12T09:45:57.601Z,65.53
2019-03-12T09:48:31.394Z,64.48
2019-03-12T09:51:05.549Z,64.09
2019-03-12T09:53:53.132Z,63.22
2019-03-12T09:56:49.299Z,64.74
2019-03-12T09:59:29.914Z,64.73
2019-03-12T10:02:16.234Z,64.52
2019-03-12T10:04:59.738Z,63.16
2019-03-12T10:07:48.229Z,64.70
2019-03-12T10:10:43.947Z,64.61
2019-03-12T10:13:27.238Z,63.58
2019-03-12T10:16:20.550Z,63.76
2019-03-12T10:19:14.242Z,64.73
2019-03-12T10:22:00.291Z,63.05
2019-03-12T10:27:51.911Z,63.63
2019-03-12T10:30:28.126Z,61.99
2019-03-12T10:33:27.729Z,63.75
2019-03-12T10:36:06.761Z,63.74
2019-03-12T10:39:42.782Z,63.25
2019-03-12T10:42:18.599Z,63.08
2019-03-12T10:45:11.696Z,63.26
2019-03-12T10:47:40.121Z,63.54
2019-03-12T10:50:08.451Z,63.30
2019-03-12T10:52:36.498Z,63.32
2019-03-12T10:55:12.973Z,63.10
2019-03-12T10:57:34.871Z,62.76
2019-03-12T11:00:03.956Z,61.75
2019-03-12T11:02:32.032Z,63.02
2019-03-12T11:05:00.184Z,62.69
2019-03-12T11:07:28.563Z,62.76
2019-03-12T11:09:56.598Z,61.91
2019-03-12T11:12:24.712Z,63.05
2019-03-12T11:14:52.730Z,62.66
2019-03-12T11:17:20.808Z,62.65
2019-03-12T11:19:48.757Z,63.21
2019-03-12T11:22:16.780Z,63.53
2019-03-12T11:24:44.926Z,63.01
2019-03-12T11:27:13.088Z,62.55
2019-03-12T11:29:41.109Z,63.95
2019-03-12T11:32:09.439Z,63.29
2019-03-12T11:34:38.725Z,62.92
2019-03-12T11:37:07.079Z,63.00
2019-03-12T11:39:35.276Z,63.12
2019-03-12T11:42:03.385Z,62.73
2019-03-12T11:44:31.307Z,62.89
2019-03-12T11:46:59.443Z,62.66
2019-03-12T11:49:27.465Z,61.08
2019-03-12T11:51:55.619Z,59.35
2019-03-12T11:54:36.582Z,59.59
2019-03-12T11:57:04.748Z,59.61
2019-03-12T11:59:32.877Z,59.75
2019-03-12T12:02:01.214Z,58.50
2019-03-12T12:04:29.125Z,58.41
2019-03-12T12:06:57.693Z,58.50
2019-03-12T12:09:25.766Z,59.39
2019-03-12T12:11:53.899Z,58.53
2019-03-12T12:14:21.928Z,56.40
2019-03-12T12:16:50.004Z,54.44
2019-03-12T12:19:18.693Z,55.54
2019-03-12T12:21:46.821Z,55.37
2019-03-12T12:24:14.768Z,54.46
2019-03-12T12:26:44.726Z,56.05
2019-03-12T12:29:13.801Z,55.95
2019-03-12T12:31:43.908Z,54.70
2019-03-12T12:34:11.883Z,52.39
2019-03-12T12:36:39.828Z,52.90
2019-03-12T12:39:08.083Z,52.49
2019-03-12T12:41:36.159Z,51.88
2019-03-12T12:44:04.576Z,52.21
2019-03-12T12:46:32.613Z,52.50
2019-03-12T12:49:00.652Z,52.46
2019-03-12T12:51:28.843Z,51.88
2019-03-12T12:53:56.935Z,49.94
2019-03-12T12:56:26.328Z,49.54
2019-03-12T12:58:54.451Z,47.74
2019-03-12T13:01:24.263Z,47.99
2019-03-12T13:03:52.356Z,49.11
2019-03-12T13:06:20.383Z,47.02
2019-03-12T13:08:48.841Z,47.77
2019-03-12T13:11:17.109Z,48.97
2019-03-12T13:13:45.144Z,48.50
2019-03-12T13:16:24.415Z,48.53
2019-03-12T13:18:43.142Z,49.09
2019-03-12T13:21:11.706Z,50.88
2019-03-12T13:23:39.946Z,51.81
2019-03-12T13:26:07.749Z,52.82
2019-03-12T13:28:35.723Z,53.13
2019-03-12T13:31:03.748Z,51.92
2019-03-12T13:33:31.742Z,52.74
2019-03-12T13:36:03.617Z,52.54
2019-03-12T13:38:44.732Z,52.39
2019-03-12T13:41:03.535Z,52.34
2019-03-12T13:43:32.017Z,51.82
2019-03-12T13:46:08.171Z,51.07
2019-03-12T13:48:39.344Z,51.19
2019-03-12T13:51:09.518Z,50.39
2019-03-12T13:53:39.517Z,50.47
2019-03-12T13:56:07.663Z,49.67
2019-03-12T13:58:38.263Z,50.01
2019-03-12T14:01:06.574Z,50.94
2019-03-12T14:03:34.760Z,51.30
2019-03-12T14:06:02.883Z,51.66
2019-03-12T14:08:31.912Z,50.63
2019-03-12T14:11:00.085Z,51.80
2019-03-12T14:13:28.191Z,52.25
2019-03-12T14:15:56.244Z,50.47
2019-03-12T14:18:24.413Z,46.50
2019-03-12T14:21:04.856Z,46.36
2019-03-12T14:23:38.721Z,45.61
2019-03-12T14:26:06.817Z,45.48
2019-03-12T14:28:35.869Z,43.07
2019-03-12T14:31:03.990Z,43.42
2019-03-12T14:33:37.241Z,42.67
2019-03-12T14:36:05.462Z,41.74
2019-03-12T14:38:33.578Z,42.53
2019-03-12T14:41:01.835Z,42.46
2019-03-12T14:43:29.941Z,43.55
2019-03-12T14:45:58.297Z,44.38
2019-03-12T14:48:37.949Z,44.35
2019-03-12T14:51:10.729Z,44.62
2019-03-12T14:53:39.481Z,45.04
2019-03-12T14:56:07.421Z,45.54
2019-03-12T14:58:35.627Z,46.07
2019-03-12T15:01:03.741Z,46.39
2019-03-12T15:03:31.917Z,46.44
2019-03-12T15:06:00.023Z,46.58
2019-03-12T15:08:28.113Z,46.58
2019-03-12T15:10:56.559Z,46.50
2019-03-12T15:13:24.550Z,47.45
2019-03-12T15:15:52.608Z,47.60
2019-03-12T15:18:20.538Z,48.45
2019-03-12T15:20:48.630Z,48.18
2019-03-12T15:23:16.764Z,48.07
2019-03-12T15:25:44.761Z,47.82
2019-03-12T15:28:12.702Z,46.24
2019-03-12T15:30:40.794Z,47.83
2019-03-12T15:33:08.652Z,48.24
2019-03-12T15:35:37.013Z,48.63
2019-03-12T15:38:05.042Z,48.21
2019-03-12T15:40:33.200Z,48.35
2019-03-12T15:43:01.246Z,48.79
2019-03-12T15:45:29.297Z,48.61
2019-03-12T15:47:57.421Z,47.70
2019-03-12T15:50:25.559Z,47.88
2019-03-12T15:52:54.152Z,48.15
2019-03-12T15:55:23.148Z,48.86
2019-03-12T15:57:51.085Z,49.37
2019-03-12T16:00:19.295Z,49.37
2019-03-12T16:02:47.508Z,48.67
2019-03-12T16:05:15.603Z,49.13
2019-03-12T16:07:44.556Z,49.50
2019-03-12T16:10:12.767Z,50.08
2019-03-12T16:12:40.927Z,50.57
2019-03-12T16:15:09.101Z,50.99
2019-03-12T16:17:37.226Z,51.18
2019-03-12T16:20:06.078Z,51.23
2019-03-12T16:22:34.000Z,51.35
2019-03-12T16:25:02.100Z,51.41
2019-03-12T16:27:30.183Z,50.86
2019-03-12T16:29:58.401Z,51.49
2019-03-12T16:32:26.473Z,51.81
2019-03-12T16:34:54.472Z,51.75
2019-03-12T16:37:26.452Z,51.87
2019-03-12T16:39:54.477Z,52.33
2019-03-12T16:42:34.243Z,52.39
2019-03-12T16:44:52.623Z,52.89
2019-03-12T16:47:20.736Z,52.93
2019-03-12T16:49:48.843Z,52.71
2019-03-12T16:52:16.923Z,52.79
2019-03-12T16:54:44.971Z,52.79
2019-03-12T16:57:13.074Z,52.96
2019-03-12T16:59:41.042Z,53.01
2019-03-12T17:02:09.194Z,53.50
2019-03-12T17:04:37.294Z,53.76
2019-03-12T17:07:05.475Z,53.73
2019-03-12T17:09:33.386Z,53.74
2019-03-12T17:12:01.469Z,54.17
2019-03-12T17:14:38.818Z,54.32
2019-03-12T17:16:59.521Z,53.95
2019-03-12T17:19:27.579Z,53.84
2019-03-12T17:21:55.580Z,54.09
2019-03-12T17:24:23.582Z,53.96
2019-03-12T17:26:51.716Z,53.80
2019-03-12T17:29:21.887Z,54.16
2019-03-12T17:31:49.981Z,54.15
2019-03-12T17:34:19.200Z,53.74
2019-03-12T17:36:47.283Z,53.87
2019-03-12T17:39:18.359Z,54.10
2019-03-12T17:41:46.538Z,54.57
2019-03-12T17:44:14.659Z,54.62
2019-03-12T17:46:42.926Z,54.62
2019-03-12T17:49:12.672Z,55.01
2019-03-12T17:51:41.039Z,55.25
2019-03-12T17:54:09.070Z,55.48
2019-03-12T17:56:37.194Z,55.49
2019-03-12T17:59:05.233Z,56.14
2019-03-12T18:01:33.432Z,56.38
2019-03-12T18:04:01.399Z,56.71
2019-03-12T18:08:17.752Z,56.45
2019-03-12T18:10:56.616Z,57.06
2019-03-12T18:13:26.350Z,56.99
2019-03-12T18:15:54.477Z,57.40
2019-03-12T18:19:34.964Z,58.03
2019-03-12T18:22:03.043Z,58.31
2019-03-12T18:24:31.189Z,57.93
2019-03-12T18:26:59.212Z,58.28
2019-03-12T18:29:27.252Z,58.56
2019-03-12T18:31:55.262Z,58.63
2019-03-12T18:34:23.290Z,59.17
2019-03-12T18:36:51.371Z,59.46
2019-03-12T18:39:19.409Z,60.08
2019-03-12T18:41:55.936Z,59.59
2019-03-12T18:44:25.531Z,59.73
2019-03-12T18:46:53.580Z,60.18
2019-03-12T18:49:21.518Z,60.26
2019-03-12T18:51:51.523Z,60.16
2019-03-12T18:54:19.475Z,60.61
2019-03-12T18:56:47.476Z,61.00
2019-03-12T18:59:15.507Z,60.68
2019-03-12T19:01:43.686Z,61.25
2019-03-12T19:04:11.498Z,61.00
2019-03-12T19:06:40.307Z,61.03
2019-03-12T19:09:08.828Z,61.20
2019-03-12T19:11:37.563Z,60.99
2019-03-12T19:14:05.845Z,60.97
2019-03-12T19:16:33.944Z,61.65
2019-03-12T19:19:01.975Z,61.70
2019-03-12T19:21:29.984Z,62.00
2019-03-12T19:23:58.065Z,62.22
2019-03-12T19:26:26.309Z,62.68
2019-03-12T19:28:54.371Z,63.05
2019-03-12T19:31:29.141Z,68.55
2019-03-12T19:34:00.803Z,63.32
2019-03-12T19:36:31.253Z,61.94
2019-03-12T19:38:59.409Z,62.45
2019-03-12T19:41:27.486Z,62.79
2019-03-12T19:43:56.109Z,62.76
2019-03-12T19:46:24.725Z,63.02
2019-03-12T19:48:53.066Z,62.68
2019-03-12T19:51:21.131Z,62.86
2019-03-12T19:53:50.259Z,62.85
2019-03-12T19:56:18.291Z,63.30
2019-03-12T19:58:46.416Z,63.35
2019-03-12T20:01:14.962Z,63.42
2019-03-12T20:03:43.342Z,63.81
2019-03-12T20:06:11.445Z,63.87
2019-03-12T20:08:39.611Z,63.99
2019-03-12T20:11:54.417Z,64.26
2019-03-12T20:14:49.760Z,64.22
2019-03-12T20:17:43.920Z,63.91
2019-03-12T20:20:48.946Z,64.34
2019-03-12T20:24:01.586Z,64.57
2019-03-12T20:26:59.090Z,64.22
2019-03-12T20:30:14.079Z,64.72
2019-03-12T20:33:18.529Z,64.99
2019-03-12T20:36:26.747Z,64.13
2019-03-12T20:39:36.354Z,64.02
2019-03-12T20:43:07.261Z,63.95
2019-03-12T20:46:12.510Z,63.88
2019-03-12T20:49:16.411Z,63.46
2019-03-12T20:52:34.957Z,63.05
2019-03-12T20:55:51.933Z,63.14
2019-03-12T20:59:03.160Z,62.68
2019-03-12T21:02:11.095Z,62.63
2019-03-12T21:05:34.735Z,62.45
2019-03-12T21:08:55.906Z,62.36
2019-03-12T21:12:16.293Z,62.39
2019-03-12T21:15:27.224Z,62.25
2019-03-12T21:18:31.233Z,61.64
2019-03-12T21:21:45.591Z,61.91
2019-03-12T21:24:46.014Z,61.86
2019-03-12T21:28:00.494Z,62.05
2019-03-12T21:30:28.617Z,62.40
2019-03-12T21:32:56.680Z,62.49
2019-03-12T21:35:24.920Z,62.63
2019-03-12T21:37:53.259Z,62.88
2019-03-12T21:40:21.394Z,62.55
2019-03-12T21:42:49.538Z,62.74
2019-03-12T21:45:17.770Z,62.60
2019-03-12T21:47:45.894Z,62.72
2019-03-12T21:50:14.153Z,62.47
2019-03-12T21:52:42.237Z,62.53
2019-03-12T21:55:10.662Z,62.45
2019-03-12T21:57:38.879Z,62.39
2019-03-12T22:00:10.898Z,62.37
2019-03-12T22:02:39.154Z,62.34
2019-03-12T22:05:07.219Z,62.56
2019-03-12T22:07:35.232Z,63.00
2019-03-12T22:10:03.401Z,62.82
2019-03-12T22:12:31.534Z,63.04
2019-03-12T22:14:59.473Z,63.18
2019-03-12T22:17:27.673Z,63.24
2019-03-12T22:19:55.710Z,62.75
2019-03-12T22:22:30.272Z,62.84
2019-03-12T22:25:01.585Z,62.62
2019-03-12T22:27:33.306Z,62.71
2019-03-12T22:30:04.114Z,62.96
2019-03-12T22:32:38.113Z,62.74
2019-03-12T22:35:09.401Z,63.12
2019-03-12T22:37:40.464Z,62.83
2019-03-12T22:40:11.395Z,62.69
2019-03-12T22:42:40.625Z,62.59
2019-03-12T22:45:09.229Z,62.82
2019-03-12T22:47:37.452Z,62.59
2019-03-12T22:50:08.437Z,62.12
2019-03-12T22:52:39.281Z,62.29
2019-03-12T22:55:10.662Z,62.10
2019-03-12T22:57:41.256Z,62.09
2019-03-12T23:00:10.662Z,62.16
2019-03-12T23:02:38.923Z,62.27
2019-03-12T23:05:07.360Z,61.90
2019-03-12T23:07:38.696Z,62.33
2019-03-12T23:10:09.812Z,62.26
2019-03-12T23:12:40.794Z,62.63
2019-03-12T23:15:10.084Z,62.36
2019-03-12T23:17:38.137Z,62.64
2019-03-12T23:20:07.687Z,62.56
2019-03-12T23:22:35.545Z,62.65
2019-03-12T23:25:14.234Z,62.24
2019-03-12T23:27:42.846Z,62.38
2019-03-12T23:30:12.272Z,62.57
2019-03-12T23:32:41.532Z,62.85
2019-03-12T23:35:09.873Z,63.24
2019-03-12T23:37:37.986Z,62.93
2019-03-12T23:40:06.302Z,63.39
2019-03-12T23:42:34.242Z,63.06
2019-03-12T23:45:02.194Z,63.05
2019-03-12T23:47:31.102Z,63.22
2019-03-12T23:49:59.136Z,63.18
2019-03-12T23:52:27.035Z,63.11
2019-03-12T23:54:55.054Z,62.87
2019-03-12T23:57:23.588Z,63.33
2019-03-12T23:59:51.356Z,63.37
